Time;durP1;ratioP1;P1;durP2;ratioP2;P2;SDS_P1;SDS_P2;PMS_P1;PMS_P2;Temp;Humidity;BMP_temperature;BMP_pressure;BME280_temperature;BME280_humidity;BME280_pressure;Samples;Min_cycle;Max_cycle;Signal;HPM_P1;HPM_P2
2023/04/02 00:00:09;;;;;;;5.35;4.85;;;;;;;4.86;100.00;95293.81;4932543;29;20039;-64
2023/04/02 00:03:07;;;;;;;6.47;5.78;;;;;;;4.87;100.00;95292.84;4928363;29;20039;-64
2023/04/02 00:05:50;;;;;;;5.97;5.43;;;;;;;4.90;100.00;95304.00;4903873;29;20398;-64
2023/04/02 00:08:27;;;;;;;6.72;6.13;;;;;;;4.87;100.00;95308.50;4938244;29;20031;-64
2023/04/02 00:10:56;;;;;;;6.28;5.78;;;;;;;4.92;100.00;95309.94;4935314;29;20035;-64
2023/04/02 00:13:43;;;;;;;6.43;5.93;;;;;;;4.95;100.00;95309.69;4935406;29;20059;-64
2023/04/02 00:16:12;;;;;;;5.75;5.25;;;;;;;5.03;100.00;95309.97;4919428;29;20036;-64
2023/04/02 00:18:44;;;;;;;6.05;5.65;;;;;;;5.03;100.00;95315.19;4937343;29;20515;-64
2023/04/02 00:21:36;;;;;;;8.20;7.60;;;;;;;5.07;100.00;95311.38;4929316;29;20024;-63
2023/04/02 00:24:12;;;;;;;9.75;9.05;;;;;;;5.11;100.00;95315.41;4932434;29;20075;-64
2023/04/02 00:26:42;;;;;;;11.02;10.02;;;;;;;4.98;100.00;95306.88;4933498;29;20027;-63
2023/04/02 00:29:12;;;;;;;10.13;9.32;;;;;;;4.90;100.00;95315.28;4936895;29;20079;-63
2023/04/02 00:31:42;;;;;;;10.90;10.00;;;;;;;5.16;100.00;95321.09;4934890;29;20032;-64
2023/04/02 00:34:13;;;;;;;9.63;8.93;;;;;;;5.03;100.00;95320.41;4928505;29;20031;-64
2023/04/02 00:36:40;;;;;;;9.13;8.30;;;;;;;5.06;100.00;95316.69;4931712;29;20028;-63
2023/04/02 00:39:14;;;;;;;9.13;8.43;;;;;;;4.98;100.00;95322.53;4927415;29;20042;-63
2023/04/02 00:41:45;;;;;;;9.82;8.93;;;;;;;4.95;100.00;95315.75;4928183;29;20031;-64
2023/04/02 00:44:13;;;;;;;10.27;8.98;;;;;;;4.87;100.00;95316.34;4936260;29;20035;-64
2023/04/02 00:46:45;;;;;;;8.18;7.57;;;;;;;4.94;100.00;95318.47;4938964;29;20047;-64
2023/04/02 00:49:37;;;;;;;9.35;8.55;;;;;;;4.90;100.00;95328.31;4927482;29;20076;-64
2023/04/02 00:52:09;;;;;;;9.70;8.77;;;;;;;4.96;100.00;95327.84;4917406;29;20035;-63
2023/04/02 00:54:48;;;;;;;10.05;9.23;;;;;;;4.91;100.00;95332.59;4913535;29;20439;-64
2023/04/02 00:57:24;;;;;;;10.25;9.25;;;;;;;4.86;100.00;95325.09;4930972;29;20682;-64
2023/04/02 01:00:16;;;;;;;9.52;8.82;;;;;;;4.98;100.00;95335.56;4926100;29;20028;-64
2023/04/02 01:02:42;;;;;;;9.80;8.90;;;;;;;4.84;100.00;95340.03;4931693;29;20032;-64
2023/04/02 01:05:13;;;;;;;8.63;7.97;;;;;;;4.78;100.00;95335.28;4929340;29;20364;-64
2023/04/02 01:07:57;;;;;;;9.05;8.35;;;;;;;4.73;100.00;95334.78;4936763;29;20102;-64
2023/04/02 01:10:52;;;;;;;8.55;7.95;;;;;;;4.73;100.00;95347.81;4923033;29;20102;-63
2023/04/02 01:13:21;;;;;;;9.05;8.25;;;;;;;4.75;100.00;95347.72;4937759;29;20027;-64
2023/04/02 01:16:06;;;;;;;8.85;8.15;;;;;;;4.73;100.00;95345.22;4936119;29;20041;-64
2023/04/02 01:18:49;;;;;;;8.68;7.78;;;;;;;4.85;100.00;95348.69;4935392;29;20036;-64
2023/04/02 01:21:24;;;;;;;8.40;7.70;;;;;;;4.91;100.00;95344.78;4919604;29;20039;-64
2023/04/02 01:24:09;;;;;;;9.32;8.63;;;;;;;4.95;100.00;95346.22;4936953;29;20030;-64
2023/04/02 01:26:56;;;;;;;9.52;8.50;;;;;;;4.87;100.00;95349.44;4917679;29;20063;-64
2023/04/02 01:29:21;;;;;;;8.20;7.57;;;;;;;4.90;100.00;95348.34;4936677;29;20055;-64
2023/04/02 01:31:49;;;;;;;8.52;7.72;;;;;;;4.86;100.00;95359.00;4932743;29;20020;-64
2023/04/02 01:34:18;;;;;;;8.13;7.45;;;;;;;4.82;100.00;95368.03;4936955;29;20039;-64
2023/04/02 01:37:12;;;;;;;7.95;6.80;;;;;;;4.80;100.00;95362.09;4927976;29;20035;-64
2023/04/02 01:40:06;;;;;;;7.97;7.35;;;;;;;4.83;100.00;95354.03;4935648;29;20049;-64
2023/04/02 01:43:22;;;;;;;7.60;7.10;;;;;;;4.83;100.00;95358.41;4935939;29;20058;-63
2023/04/02 01:45:48;;;;;;;8.98;8.27;;;;;;;4.81;100.00;95348.09;4873428;29;20570;-64
2023/04/02 01:48:16;;;;;;;9.07;8.38;;;;;;;4.80;100.00;95358.63;4928423;29;20453;-64
2023/04/02 01:50:44;;;;;;;8.60;7.95;;;;;;;4.80;100.00;95350.81;4936341;29;20098;-64
2023/04/02 01:53:12;;;;;;;9.35;8.70;;;;;;;4.81;100.00;95344.66;4936297;29;20032;-64
2023/04/02 01:55:45;;;;;;;11.75;7.93;;;;;;;4.84;100.00;95345.25;4933459;29;20104;-64
2023/04/02 01:58:12;;;;;;;8.98;8.23;;;;;;;4.75;100.00;95348.53;4918855;29;20058;-64
2023/04/02 02:01:07;;;;;;;9.07;8.13;;;;;;;4.70;100.00;95341.06;4937293;29;20019;-64
2023/04/02 02:03:33;;;;;;;7.60;7.00;;;;;;;4.68;100.00;95342.13;4934024;29;20039;-64
2023/04/02 02:06:00;;;;;;;7.82;7.13;;;;;;;4.64;100.00;95340.69;4931830;29;20557;-64
2023/04/02 02:08:31;;;;;;;7.15;6.65;;;;;;;4.62;100.00;95346.00;4926291;29;20036;-64
2023/04/02 02:10:57;;;;;;;7.95;7.35;;;;;;;4.55;100.00;95348.28;4936250;29;20028;-64
2023/04/02 02:13:23;;;;;;;8.00;7.40;;;;;;;4.46;100.00;95348.94;4936937;29;20066;-64
2023/04/02 02:15:49;;;;;;;8.60;7.90;;;;;;;4.39;100.00;95352.94;4935947;29;20118;-64
2023/04/02 02:18:18;;;;;;;8.80;8.00;;;;;;;4.38;100.00;95352.09;4919327;29;20024;-64
2023/04/02 02:20:45;;;;;;;8.50;7.78;;;;;;;4.38;100.00;95351.28;4936026;29;20057;-64
2023/04/02 02:23:11;;;;;;;7.65;7.05;;;;;;;4.38;100.00;95359.09;4916358;29;20027;-64
2023/04/02 02:25:38;;;;;;;6.97;6.38;;;;;;;4.37;100.00;95355.66;4916685;29;20023;-64
2023/04/02 02:28:13;;;;;;;5.38;4.95;;;;;;;4.36;100.00;95363.59;4936368;29;20036;-64
2023/04/02 02:30:49;;;;;;;4.83;4.43;;;;;;;4.30;100.00;95359.66;4931817;29;20035;-64
2023/04/02 02:33:24;;;;;;;5.03;4.55;;;;;;;4.29;100.00;95374.44;4934888;29;20041;-64
2023/04/02 02:35:53;;;;;;;4.10;3.80;;;;;;;4.25;100.00;95377.41;4936565;29;20019;-64
2023/04/02 02:38:55;;;;;;;3.13;3.03;;;;;;;4.35;100.00;95370.56;4936071;29;20035;-64
2023/04/02 02:41:35;;;;;;;2.65;2.55;;;;;;;4.34;100.00;95373.31;4908369;29;20500;-64
2023/04/02 02:44:07;;;;;;;3.20;2.90;;;;;;;4.38;100.00;95372.13;4931753;29;20036;-64
2023/04/02 02:46:34;;;;;;;8.15;7.55;;;;;;;4.46;100.00;95372.38;4934412;29;20055;-64
2023/04/02 02:49:03;;;;;;;10.90;9.88;;;;;;;4.51;100.00;95370.28;4936920;29;20066;-64
2023/04/02 02:51:54;;;;;;;10.05;9.27;;;;;;;4.50;100.00;95371.22;4919811;29;20032;-64
2023/04/02 02:54:20;;;;;;;10.05;9.35;;;;;;;4.54;100.00;95367.47;4928949;29;20039;-64
2023/04/02 02:56:54;;;;;;;11.57;10.57;;;;;;;4.45;100.00;95368.13;4935667;29;20048;-64
2023/04/02 02:59:21;;;;;;;11.05;10.20;;;;;;;4.48;100.00;95378.31;4933691;29;20087;-64
2023/04/02 03:01:46;;;;;;;10.98;10.07;;;;;;;4.40;100.00;95380.66;4930023;29;20031;-64
2023/04/02 03:04:19;;;;;;;10.25;9.35;;;;;;;4.40;100.00;95383.28;4930666;29;20042;-64
2023/04/02 03:06:51;;;;;;;10.00;9.30;;;;;;;4.36;100.00;95389.66;4934396;29;20404;-64
2023/04/02 03:09:35;;;;;;;8.48;7.82;;;;;;;4.34;100.00;95388.94;4936050;29;20432;-64
2023/04/02 03:12:26;;;;;;;6.30;5.90;;;;;;;4.30;100.00;95391.75;4935580;29;20118;-64
2023/04/02 03:15:07;;;;;;;6.70;6.00;;;;;;;4.29;100.00;95400.50;4918874;29;20588;-64
2023/04/02 03:18:04;;;;;;;7.85;6.65;;;;;;;4.30;100.00;95394.34;4934227;29;20119;-64
2023/04/02 03:20:44;;;;;;;7.05;6.43;;;;;;;4.31;100.00;95392.59;4936046;29;20032;-64
2023/04/02 03:23:16;;;;;;;6.18;5.75;;;;;;;4.32;100.00;95391.66;4930017;29;20054;-64
2023/04/02 03:26:05;;;;;;;5.28;4.88;;;;;;;4.31;100.00;95397.81;4934561;29;20027;-64
2023/04/02 03:28:37;;;;;;;5.82;5.43;;;;;;;4.35;100.00;95394.03;4933176;29;20102;-64
2023/04/02 03:31:18;;;;;;;7.20;5.80;;;;;;;4.34;100.00;95397.56;4917755;29;20098;-64
2023/04/02 03:33:53;;;;;;;6.15;5.55;;;;;;;4.32;100.00;95399.47;4941099;29;20024;-64
2023/04/02 03:36:27;;;;;;;6.88;6.38;;;;;;;4.33;100.00;95390.69;4908008;29;20036;-64
2023/04/02 03:38:58;;;;;;;6.53;5.85;;;;;;;4.32;100.00;95409.06;4931444;29;20409;-63
2023/04/02 03:41:35;;;;;;;6.90;6.40;;;;;;;4.29;100.00;95394.47;4933408;29;20519;-63
2023/04/02 03:44:06;;;;;;;8.70;7.70;;;;;;;4.28;100.00;95401.44;4938042;29;20047;-63
2023/04/02 03:46:38;;;;;;;8.10;7.40;;;;;;;4.32;100.00;95406.47;4936626;29;20507;-64
2023/04/02 03:49:18;;;;;;;6.47;5.97;;;;;;;4.33;100.00;95408.13;4934336;29;20516;-64
2023/04/02 03:52:05;;;;;;;7.15;6.30;;;;;;;4.30;100.00;95406.56;4932694;29;20667;-63
2023/04/02 03:54:31;;;;;;;8.10;6.30;;;;;;;4.28;100.00;95411.06;4934488;29;20041;-63
2023/04/02 03:56:57;;;;;;;6.50;6.10;;;;;;;4.29;100.00;95416.13;4938910;29;20428;-63
2023/04/02 03:59:47;;;;;;;7.03;6.43;;;;;;;4.30;100.00;95411.78;4922386;29;20052;-64
2023/04/02 04:02:25;;;;;;;6.03;5.63;;;;;;;4.31;100.00;95418.66;4938604;29;20032;-63
2023/04/02 04:04:53;;;;;;;6.68;6.07;;;;;;;4.35;100.00;95420.09;4933617;29;20032;-64
2023/04/02 04:07:40;;;;;;;6.40;5.95;;;;;;;4.35;100.00;95416.66;4934444;29;20047;-64
2023/04/02 04:10:08;;;;;;;5.68;5.28;;;;;;;4.35;100.00;95414.06;4936461;29;20060;-64
2023/04/02 04:12:38;;;;;;;5.82;5.43;;;;;;;4.34;100.00;95420.22;4935398;29;20090;-64
2023/04/02 04:15:06;;;;;;;5.45;5.05;;;;;;;4.35;100.00;95422.69;4939308;29;20031;-64
2023/04/02 04:17:50;;;;;;;5.68;5.18;;;;;;;4.38;100.00;95419.03;4939829;29;20051;-64
2023/04/02 04:20:39;;;;;;;5.65;4.43;;;;;;;4.40;100.00;95422.38;4936165;29;20102;-64
2023/04/02 04:23:29;;;;;;;3.95;3.75;;;;;;;4.41;100.00;95421.44;4939038;29;20405;-64
2023/04/02 04:26:19;;;;;;;3.47;3.17;;;;;;;4.45;100.00;95433.28;4924166;29;20097;-64
2023/04/02 04:29:22;;;;;;;4.20;3.97;;;;;;;4.44;100.00;95429.88;4929794;29;20039;-64
2023/04/02 04:31:53;;;;;;;3.83;3.63;;;;;;;4.46;100.00;95423.72;4935978;29;20035;-64
2023/04/02 04:34:28;;;;;;;4.05;3.75;;;;;;;4.47;100.00;95428.81;4939184;29;20042;-64
2023/04/02 04:37:00;;;;;;;10.65;5.50;;;;;;;4.43;100.00;95429.97;4936032;29;20039;-64
2023/04/02 04:39:39;;;;;;;5.22;4.82;;;;;;;4.39;100.00;95420.72;4936904;29;20031;-64
2023/04/02 04:42:11;;;;;;;7.13;6.15;;;;;;;4.43;100.00;95425.59;4923902;29;20541;-64
2023/04/02 04:44:48;;;;;;;6.22;5.78;;;;;;;4.39;100.00;95424.13;4935476;29;20499;-64
2023/04/02 04:47:38;;;;;;;6.85;5.75;;;;;;;4.34;100.00;95431.47;4932022;29;20028;-64
2023/04/02 04:50:33;;;;;;;7.18;5.68;;;;;;;4.26;100.00;95432.00;4933161;29;20043;-64
2023/04/02 04:53:15;;;;;;;5.72;5.32;;;;;;;4.24;100.00;95428.69;4933059;29;20051;-64
2023/04/02 04:55:44;;;;;;;6.35;5.82;;;;;;;4.23;100.00;95431.41;4938083;29;20044;-64
2023/04/02 04:58:22;;;;;;;6.85;6.35;;;;;;;4.20;100.00;95435.06;4934426;29;20096;-64
2023/04/02 05:00:53;;;;;;;5.90;5.40;;;;;;;4.14;100.00;95433.72;4939152;29;20110;-64
2023/04/02 05:03:31;;;;;;;5.28;4.88;;;;;;;4.07;100.00;95434.25;4934709;29;20034;-64
2023/04/02 05:06:09;;;;;;;4.18;3.88;;;;;;;4.00;100.00;95442.50;4937592;29;20513;-64
2023/04/02 05:08:40;;;;;;;4.50;4.05;;;;;;;4.01;100.00;95444.16;4932578;29;20031;-64
2023/04/02 05:11:13;;;;;;;4.10;3.20;;;;;;;4.04;100.00;95439.69;4932520;29;20083;-64
2023/04/02 05:13:48;;;;;;;3.63;3.42;;;;;;;4.01;100.00;95438.94;4938798;29;20405;-64
2023/04/02 05:16:23;;;;;;;4.13;3.83;;;;;;;4.04;100.00;95442.28;4916876;29;20035;-64
2023/04/02 05:19:05;;;;;;;5.88;4.60;;;;;;;4.12;100.00;95450.41;4930990;29;20325;-64
2023/04/02 05:21:46;;;;;;;4.70;4.40;;;;;;;4.17;100.00;95448.31;4937692;29;20035;-64
2023/04/02 05:24:26;;;;;;;4.25;3.85;;;;;;;4.09;100.00;95450.59;4932044;29;20063;-64
2023/04/02 05:26:56;;;;;;;3.97;3.67;;;;;;;4.02;100.00;95447.63;4934252;29;20036;-64
2023/04/02 05:29:30;;;;;;;4.43;4.13;;;;;;;4.00;100.00;95457.31;4919227;29;20050;-64
2023/04/02 05:32:02;;;;;;;4.18;3.97;;;;;;;4.03;100.00;95451.88;4937723;29;20027;-64
2023/04/02 05:34:33;;;;;;;5.30;4.90;;;;;;;4.08;100.00;95454.16;4924303;29;20573;-64
2023/04/02 05:36:58;;;;;;;5.78;5.38;;;;;;;4.15;100.00;95464.03;4937052;29;20079;-64
2023/04/02 05:39:26;;;;;;;5.70;5.30;;;;;;;4.20;100.00;95460.25;4931192;29;20031;-64
2023/04/02 05:42:03;;;;;;;5.63;5.13;;;;;;;4.25;100.00;95461.59;4933584;29;20021;-64
2023/04/02 05:44:32;;;;;;;5.80;5.40;;;;;;;4.36;100.00;95467.84;4927944;29;20119;-64
2023/04/02 05:47:04;;;;;;;7.65;7.05;;;;;;;4.57;100.00;95461.09;4932990;29;20031;-64
2023/04/02 05:49:42;;;;;;;9.57;8.75;;;;;;;4.50;100.00;95470.28;4919969;29;20032;-64
2023/04/02 05:52:14;;;;;;;11.50;10.52;;;;;;;4.38;100.00;95464.19;4934401;29;20036;-64
2023/04/02 05:54:51;;;;;;;17.02;13.35;;;;;;;4.19;100.00;95461.22;4936832;29;20046;-64
2023/04/02 05:57:29;;;;;;;16.52;14.93;;;;;;;4.07;100.00;95461.16;4939786;29;20036;-64
2023/04/02 05:59:57;;;;;;;16.67;15.18;;;;;;;4.29;100.00;95465.66;4902181;29;20060;-64
2023/04/02 06:02:31;;;;;;;17.08;15.60;;;;;;;4.20;100.00;95466.31;4936823;29;20567;-64
2023/04/02 06:05:00;;;;;;;17.45;15.93;;;;;;;4.30;100.00;95474.31;4929344;29;20197;-64
2023/04/02 06:07:34;;;;;;;17.83;16.33;;;;;;;4.24;100.00;95480.78;4933664;29;20088;-64
2023/04/02 06:10:00;;;;;;;18.05;16.35;;;;;;;4.08;100.00;95475.84;4918589;29;20704;-64
2023/04/02 06:12:29;;;;;;;24.15;21.85;;;;;;;4.08;100.00;95477.59;4925995;29;20032;-64
2023/04/02 06:14:55;;;;;;;21.08;19.08;;;;;;;4.11;100.00;95480.00;4934701;29;20031;-64
2023/04/02 06:17:21;;;;;;;20.75;18.95;;;;;;;4.09;100.00;95484.47;4937175;29;20404;-64
2023/04/02 06:19:48;;;;;;;18.13;16.42;;;;;;;4.23;100.00;95481.75;4937310;29;20027;-64
2023/04/02 06:22:31;;;;;;;17.83;16.13;;;;;;;4.24;100.00;95491.22;4936388;29;20031;-64
2023/04/02 06:25:21;;;;;;;18.52;16.95;;;;;;;4.29;100.00;95493.50;4935215;29;20035;-64
2023/04/02 06:27:49;;;;;;;19.77;17.98;;;;;;;4.24;100.00;95499.03;4936706;29;20032;-64
2023/04/02 06:30:23;;;;;;;20.65;18.85;;;;;;;4.37;100.00;95495.59;4932295;29;20058;-64
2023/04/02 06:32:49;;;;;;;19.73;18.02;;;;;;;4.50;100.00;95500.75;4936988;29;20564;-63
2023/04/02 06:35:14;;;;;;;27.30;24.98;;;;;;;4.56;100.00;95498.56;4935762;29;20051;-63
2023/04/02 06:37:44;;;;;;;25.58;23.25;;;;;;;4.57;100.00;95509.78;4936042;29;20019;-62
2023/04/02 06:40:48;;;;;;;20.63;18.77;;;;;;;4.51;100.00;95498.03;4937312;29;20031;-62
2023/04/02 06:43:27;;;;;;;17.65;16.15;;;;;;;4.52;100.00;95506.69;4938924;29;20027;-62
2023/04/02 06:45:56;;;;;;;18.17;16.42;;;;;;;4.54;100.00;95507.41;4936925;29;20066;-62
2023/04/02 06:48:24;;;;;;;14.57;13.20;;;;;;;4.56;100.00;95511.59;4916052;29;20595;-63
2023/04/02 06:51:02;;;;;;;15.32;13.93;;;;;;;4.52;100.00;95509.28;4935669;29;20027;-63
2023/04/02 06:53:35;;;;;;;14.23;12.93;;;;;;;4.46;100.00;95510.56;4935632;29;20043;-63
2023/04/02 06:56:16;;;;;;;9.68;8.98;;;;;;;4.34;100.00;95501.84;4936603;29;20103;-65
2023/04/02 06:58:41;;;;;;;14.23;11.60;;;;;;;4.37;100.00;95501.63;4935175;29;20023;-65
2023/04/02 07:01:14;;;;;;;13.60;12.30;;;;;;;4.40;100.00;95516.22;4931845;29;20060;-65
2023/04/02 07:03:40;;;;;;;16.83;15.43;;;;;;;4.39;100.00;95520.59;4932595;29;20429;-65
2023/04/02 07:06:13;;;;;;;9.55;8.70;;;;;;;4.48;100.00;95521.72;4935191;29;20605;-65
2023/04/02 07:08:39;;;;;;;8.38;7.68;;;;;;;4.50;100.00;95519.00;4934601;29;20023;-65
2023/04/02 07:11:04;;;;;;;8.32;7.53;;;;;;;4.61;100.00;95516.44;4936726;29;20094;-65
2023/04/02 07:13:30;;;;;;;6.13;5.63;;;;;;;4.92;100.00;95531.69;4935781;29;20056;-65
2023/04/02 07:15:56;;;;;;;6.10;5.60;;;;;;;5.07;100.00;95520.13;4919199;29;20027;-65
2023/04/02 07:18:30;;;;;;;5.13;4.82;;;;;;;5.44;100.00;95527.88;4922104;29;20051;-65
2023/04/02 07:20:56;;;;;;;6.05;5.57;;;;;;;6.43;100.00;95523.94;4935715;29;20107;-65
2023/04/02 07:23:21;;;;;;;5.18;4.70;;;;;;;7.41;100.00;95519.63;4933977;29;20068;-65
2023/04/02 07:25:52;;;;;;;6.18;5.68;;;;;;;8.56;98.68;95530.19;4926338;29;20023;-66
2023/04/02 07:28:18;;;;;;;4.45;4.25;;;;;;;9.12;93.00;95536.66;4932943;29;20479;-65
2023/04/02 07:30:44;;;;;;;4.20;3.90;;;;;;;10.06;92.34;95533.53;4916346;29;20115;-67
2023/04/02 07:33:19;;;;;;;3.75;3.50;;;;;;;10.52;83.82;95539.78;4933257;29;20520;-66
2023/04/02 07:35:45;;;;;;;3.78;3.58;;;;;;;10.62;85.50;95538.91;4936226;29;20023;-66
2023/04/02 07:38:11;;;;;;;5.57;5.07;;;;;;;11.08;83.29;95544.22;4927960;29;20075;-65
2023/04/02 07:40:37;;;;;;;3.75;3.45;;;;;;;10.58;79.64;95548.88;4932619;29;20027;-65
2023/04/02 07:43:04;;;;;;;3.83;3.45;;;;;;;9.84;84.77;95541.63;4932785;29;20032;-66
2023/04/02 07:45:29;;;;;;;4.28;3.67;;;;;;;9.73;86.11;95545.22;4934115;29;20032;-65
2023/04/02 07:47:55;;;;;;;3.13;2.92;;;;;;;9.49;87.69;95552.72;4915637;29;20092;-65
2023/04/02 07:50:21;;;;;;;4.05;3.75;;;;;;;9.17;89.11;95544.97;4933139;29;20043;-66
2023/04/02 07:52:47;;;;;;;2.80;2.60;;;;;;;9.37;90.19;95557.28;4931946;29;20028;-66
2023/04/02 07:55:14;;;;;;;2.08;1.98;;;;;;;8.85;89.14;95564.38;4938546;29;20038;-66
2023/04/02 07:57:54;;;;;;;2.33;2.22;;;;;;;8.91;88.38;95562.19;4938585;29;20066;-66
2023/04/02 08:00:21;;;;;;;2.22;2.13;;;;;;;8.53;90.64;95559.31;4936986;29;20114;-66
2023/04/02 08:02:47;;;;;;;2.97;2.63;;;;;;;8.50;91.25;95555.16;4938353;29;20034;-66
2023/04/02 08:05:13;;;;;;;2.70;2.60;;;;;;;8.55;93.22;95560.00;4938068;29;20106;-66
2023/04/02 08:07:40;;;;;;;2.30;2.20;;;;;;;8.65;91.28;95560.88;4921195;29;20047;-68
2023/04/02 08:10:07;;;;;;;2.05;1.95;;;;;;;8.65;90.41;95566.13;4935478;29;20404;-65
2023/04/02 08:12:33;;;;;;;1.77;1.77;;;;;;;8.67;89.30;95564.22;4928139;29;20023;-65
2023/04/02 08:14:58;;;;;;;2.00;1.90;;;;;;;8.69;89.45;95561.44;4935793;29;20043;-65
2023/04/02 08:17:24;;;;;;;1.58;1.58;;;;;;;8.87;89.22;95570.31;4926158;29;20060;-65
2023/04/02 08:19:49;;;;;;;1.98;1.88;;;;;;;8.89;90.24;95571.03;4929985;29;20384;-65
2023/04/02 08:22:15;;;;;;;2.63;2.13;;;;;;;8.86;88.82;95579.19;4928371;29;20110;-65
2023/04/02 08:24:40;;;;;;;1.75;1.75;;;;;;;9.25;88.52;95572.34;4913851;29;20024;-65
2023/04/02 08:27:06;;;;;;;2.03;1.92;;;;;;;9.16;88.55;95576.63;4932097;29;20027;-67
2023/04/02 08:29:32;;;;;;;1.95;1.83;;;;;;;9.12;86.21;95577.84;4930975;29;20153;-65
2023/04/02 08:32:00;;;;;;;2.00;1.90;;;;;;;9.13;88.35;95575.06;4933410;29;20051;-65
2023/04/02 08:34:27;;;;;;;4.15;2.20;;;;;;;9.17;88.35;95584.38;4935352;29;20038;-65
2023/04/02 08:36:56;;;;;;;2.47;2.38;;;;;;;9.34;88.40;95583.84;4937932;29;20023;-65
2023/04/02 08:39:24;;;;;;;2.00;1.58;;;;;;;9.26;86.00;95582.69;4918033;29;20051;-65
2023/04/02 08:42:01;;;;;;;1.50;1.50;;;;;;;9.44;85.34;95577.63;4939263;29;20028;-65
2023/04/02 08:45:00;;;;;;;2.38;2.25;;;;;;;9.57;82.44;95584.38;4935541;29;20028;-65
2023/04/02 08:47:31;;;;;;;3.60;2.42;;;;;;;10.19;82.79;95584.03;4927686;29;20036;-65
2023/04/02 08:50:01;;;;;;;1.92;1.83;;;;;;;10.31;80.65;95582.06;4937269;29;20066;-65
2023/04/02 08:52:36;;;;;;;2.08;1.98;;;;;;;10.52;80.27;95581.91;4934149;29;20042;-65
2023/04/02 08:55:03;;;;;;;1.83;1.60;;;;;;;10.59;79.25;95587.41;4931180;29;20480;-65
2023/04/02 08:57:48;;;;;;;1.80;1.70;;;;;;;10.43;78.65;95591.50;4932699;29;20071;-65
2023/04/02 09:00:14;;;;;;;3.00;1.95;;;;;;;10.37;76.76;95591.19;4923249;29;20040;-65
2023/04/02 09:02:51;;;;;;;3.88;2.15;;;;;;;10.52;77.88;95597.69;4935031;29;20507;-67
2023/04/02 09:05:25;;;;;;;1.88;1.77;;;;;;;10.75;77.37;95602.59;4938844;29;20027;-64
2023/04/02 09:07:52;;;;;;;2.25;1.77;;;;;;;11.16;75.03;95603.09;4938053;29;20035;-67
2023/04/02 09:10:18;;;;;;;1.50;1.40;;;;;;;11.15;75.22;95598.78;4906383;29;20043;-64
2023/04/02 09:12:50;;;;;;;1.73;1.73;;;;;;;11.10;73.98;95598.41;4914434;29;20400;-65
2023/04/02 09:15:21;;;;;;;1.60;1.50;;;;;;;10.92;72.69;95597.50;4930529;29;20167;-65
2023/04/02 09:17:47;;;;;;;2.65;2.45;;;;;;;11.30;74.51;95606.19;4933562;29;20056;-65
2023/04/02 09:20:20;;;;;;;2.10;1.90;;;;;;;11.25;73.81;95603.16;4932567;29;20135;-68
2023/04/02 09:22:49;;;;;;;2.60;2.40;;;;;;;11.28;70.72;95602.88;4915888;29;20088;-65
2023/04/02 09:25:28;;;;;;;1.92;1.33;;;;;;;11.08;70.90;95599.53;4929995;29;20116;-65
2023/04/02 09:27:56;;;;;;;2.70;2.50;;;;;;;11.34;73.17;95599.63;4931405;29;20031;-68
2023/04/02 09:30:31;;;;;;;1.63;1.50;;;;;;;10.94;72.04;95599.03;4934510;29;20036;-66
2023/04/02 09:33:06;;;;;;;1.43;1.33;;;;;;;10.84;73.04;95608.81;4931869;29;20103;-67
2023/04/02 09:35:32;;;;;;;3.65;3.38;;;;;;;10.98;72.73;95607.50;4934377;29;20075;-66
2023/04/02 09:38:23;;;;;;;5.28;4.55;;;;;;;10.97;72.98;95605.84;4924978;29;20067;-66
2023/04/02 09:40:50;;;;;;;3.58;3.28;;;;;;;10.76;73.98;95604.25;4933657;29;20035;-66
2023/04/02 09:43:18;;;;;;;3.25;3.00;;;;;;;10.99;74.65;95611.78;4937379;29;20057;-67
2023/04/02 09:46:14;;;;;;;6.03;2.72;;;;;;;10.68;74.25;95604.13;4940277;29;20074;-67
2023/04/02 09:48:43;;;;;;;2.67;1.58;;;;;;;10.93;75.37;95612.34;4933233;29;20395;-66
2023/04/02 09:51:23;;;;;;;2.15;1.92;;;;;;;11.04;73.28;95612.97;4933404;29;20122;-66
2023/04/02 09:54:15;;;;;;;1.50;1.40;;;;;;;10.88;72.74;95608.34;4915187;29;20028;-66
2023/04/02 09:57:00;;;;;;;1.50;1.40;;;;;;;10.92;73.29;95602.78;4921587;29;20047;-66
2023/04/02 09:59:25;;;;;;;2.03;1.60;;;;;;;10.88;73.26;95602.28;4929008;29;20035;-66
2023/04/02 10:01:54;;;;;;;1.85;1.35;;;;;;;11.19;72.61;95620.41;4934815;29;20046;-66
2023/04/02 10:04:46;;;;;;;1.42;1.35;;;;;;;11.60;71.02;95612.06;4926079;29;20038;-66
2023/04/02 10:07:30;;;;;;;2.58;2.38;;;;;;;12.03;69.72;95620.25;4927898;29;20043;-66
2023/04/02 10:09:58;;;;;;;2.80;2.45;;;;;;;12.10;68.00;95620.47;4937237;29;20062;-67
2023/04/02 10:12:24;;;;;;;1.50;1.40;;;;;;;12.24;66.24;95614.63;4934980;29;20028;-66
2023/04/02 10:14:52;;;;;;;1.38;1.30;;;;;;;12.64;65.99;95622.13;4935136;29;20058;-69
2023/04/02 10:17:22;;;;;;;2.13;1.80;;;;;;;13.02;63.57;95623.47;4935893;29;20111;-68
2023/04/02 10:19:59;;;;;;;1.20;1.20;;;;;;;13.25;62.39;95616.78;4938051;29;20554;-64
2023/04/02 10:22:27;;;;;;;1.60;1.50;;;;;;;12.98;62.92;95621.31;4933882;29;20036;-66
2023/04/02 10:24:52;;;;;;;1.25;1.17;;;;;;;13.02;63.06;95626.09;4928183;29;20547;-67
2023/04/02 10:28:05;;;;;;;1.30;1.20;;;;;;;12.76;62.71;95612.97;4924202;29;20036;-67
2023/04/02 10:30:42;;;;;;;1.00;1.00;;;;;;;12.43;63.17;95613.59;4919725;29;20587;-66
2023/04/02 10:33:24;;;;;;;1.55;1.30;;;;;;;12.43;62.47;95623.31;4929932;29;20063;-67
2023/04/02 10:36:08;;;;;;;1.38;1.27;;;;;;;12.08;63.05;95615.34;4931339;29;20032;-68
2023/04/02 10:38:54;;;;;;;1.17;1.08;;;;;;;11.68;64.54;95617.44;4926268;29;20035;-67
2023/04/02 10:41:29;;;;;;;1.77;1.50;;;;;;;12.02;65.48;95627.31;4935237;29;20031;-67
2023/04/02 10:44:07;;;;;;;1.15;1.10;;;;;;;12.42;63.55;95619.03;4935059;29;20385;-66
2023/04/02 10:46:55;;;;;;;1.27;1.17;;;;;;;12.22;61.51;95619.22;4931679;29;20032;-65
2023/04/02 10:49:41;;;;;;;3.70;3.40;;;;;;;13.02;61.49;95617.38;4931305;29;20070;-66
2023/04/02 10:52:14;;;;;;;;;;;;;;;14.10;60.19;95609.69;4932898;29;20039;-64
2023/04/02 10:54:45;;;;;;;2.08;1.98;;;;;;;15.46;55.96;95602.66;4934849;29;19922;-65
2023/04/02 10:57:30;;;;;;;1.90;1.80;;;;;;;15.88;52.12;95607.72;4928164;29;20074;-67
2023/04/02 11:00:17;;;;;;;4.88;4.38;;;;;;;15.92;49.95;95608.22;4928112;29;20491;-68
2023/04/02 11:03:12;;;;;;;2.75;1.40;;;;;;;15.90;50.24;95597.78;4912185;29;20024;-67
2023/04/02 11:05:53;;;;;;;2.55;2.35;;;;;;;15.53;51.84;95601.97;4919019;29;20044;-67
2023/04/02 11:08:21;;;;;;;1.45;1.35;;;;;;;15.42;52.74;95604.03;4926471;29;20162;-64
2023/04/02 11:10:52;;;;;;;2.70;2.50;;;;;;;15.84;51.45;95607.22;4931655;29;20039;-64
2023/04/02 11:13:42;;;;;;;5.22;4.05;;;;;;;16.46;50.80;95597.44;4927126;29;20035;-66
2023/04/02 11:16:14;;;;;;;1.98;1.85;;;;;;;17.41;48.07;95606.69;4931699;29;20103;-67
2023/04/02 11:18:39;;;;;;;1.60;1.50;;;;;;;18.02;46.60;95608.19;4928213;29;20024;-65
2023/04/02 11:21:42;;;;;;;1.52;1.42;;;;;;;16.75;47.15;95608.28;4938976;29;20035;-64
2023/04/02 11:24:31;;;;;;;2.30;2.20;;;;;;;15.14;51.31;95608.97;4937152;29;20039;-66
2023/04/02 11:27:02;;;;;;;1.80;1.10;;;;;;;14.47;52.09;95614.44;4936798;29;20106;-65
2023/04/02 11:29:30;;;;;;;30.17;21.00;;;;;;;13.46;56.76;95630.44;4915471;29;20559;-67
2023/04/02 11:32:20;;;;;;;1.10;1.10;;;;;;;12.89;57.59;95620.47;4926928;29;20512;-68
2023/04/02 11:34:45;;;;;;;1.10;1.10;;;;;;;12.46;60.11;95623.00;4933660;29;20114;-68
2023/04/02 11:37:39;;;;;;;1.20;1.10;;;;;;;12.60;59.72;95619.81;4934545;29;20059;-68
2023/04/02 11:40:10;;;;;;;2.28;2.08;;;;;;;12.51;60.21;95620.75;4922323;29;20020;-68
2023/04/02 11:42:43;;;;;;;1.20;1.20;;;;;;;12.98;56.96;95623.97;4928396;29;20102;-69
2023/04/02 11:47:58;;;;;;;2.00;1.90;;;;;;;13.88;56.84;95623.38;4935038;29;20040;-68
2023/04/02 11:50:42;;;;;;;2.53;2.33;;;;;;;15.04;49.63;95617.97;4929938;29;20038;-64
2023/04/02 11:53:10;;;;;;;2.03;1.92;;;;;;;15.53;48.09;95618.72;4935147;29;20770;-64
2023/04/02 11:55:40;;;;;;;1.27;1.23;;;;;;;16.42;45.72;95617.41;4933313;29;20023;-64
2023/04/02 11:58:31;;;;;;;1.70;1.60;;;;;;;15.94;45.10;95612.34;4931195;29;20048;-64
2023/04/02 12:01:28;;;;;;;2.22;2.13;;;;;;;15.93;48.33;95625.81;4933282;29;20041;-64
2023/04/02 12:04:28;;;;;;;1.65;1.55;;;;;;;15.52;51.38;95621.53;4935736;29;20083;-64
2023/04/02 12:07:33;;;;;;;2.60;1.40;;;;;;;15.38;51.29;95617.78;4937195;29;20047;-64
2023/04/02 12:10:02;;;;;;;1.15;1.15;;;;;;;14.80;52.17;95621.50;4933852;29;20074;-64